Time;durP1;ratioP1;P1;durP2;ratioP2;P2;SDS_P1;SDS_P2;PMS_P1;PMS_P2;Temp;Humidity;BMP_temperature;BMP_pressure;BME280_temperature;BME280_humidity;BME280_pressure;Samples;Min_cycle;Max_cycle;Signal;HPM_P1;HPM_P2
2021/12/11 00:00:38;;;;;;;;;7.00;5.75;;;;;5.94;63.59;100274.78;5098245;27;45225;-62
2021/12/11 00:03:13;;;;;;;;;7.50;4.00;;;;;5.92;63.78;100274.03;5098357;27;45296;-62
2021/12/11 00:05:38;;;;;;;;;3.25;2.50;;;;;5.94;63.74;100274.78;5097937;27;46437;-62
2021/12/11 00:08:05;;;;;;;;;7.00;4.00;;;;;5.91;63.95;100278.44;5097272;27;61858;-62
2021/12/11 00:10:36;;;;;;;;;3.50;3.25;;;;;5.92;63.81;100289.69;5078787;27;45394;-61
2021/12/11 00:13:06;;;;;;;;;4.75;4.00;;;;;5.92;63.73;100294.91;5098055;27;45323;-61
2021/12/11 00:15:34;;;;;;;;;4.75;3.75;;;;;5.91;63.93;100296.69;5097834;27;46549;-61
2021/12/11 00:18:02;;;;;;;;;7.00;7.00;;;;;5.90;63.80;100296.78;5097687;27;49785;-61
2021/12/11 00:20:30;;;;;;;;;6.00;4.50;;;;;5.87;63.84;100305.69;5097715;27;45327;-61
2021/12/11 00:22:56;;;;;;;;;4.75;4.25;;;;;5.86;63.79;100314.44;5097736;27;45514;-61
2021/12/11 00:25:21;;;;;;;;;7.25;4.25;;;;;5.87;63.89;100315.28;5096841;27;66227;-61
2021/12/11 00:27:48;;;;;;;;;8.00;4.75;;;;;5.85;64.08;100320.63;5097596;27;45291;-62
2021/12/11 00:30:25;;;;;;;;;8.00;4.00;;;;;5.83;63.88;100324.28;5097802;27;45269;-61
2021/12/11 00:33:00;;;;;;;;;4.00;3.50;;;;;5.82;64.00;100325.22;5097610;27;45361;-61
2021/12/11 00:35:26;;;;;;;;;9.50;6.50;;;;;5.80;64.25;100327.94;5097567;27;46573;-62
2021/12/11 00:37:51;;;;;;;;;6.25;4.25;;;;;5.79;64.31;100327.09;5097618;27;45461;-61
2021/12/11 00:40:22;;;;;;;;;9.50;5.00;;;;;5.77;64.49;100329.00;5096582;27;64127;-61
2021/12/11 00:42:52;;;;;;;;;5.50;5.00;;;;;5.77;64.23;100335.97;5097243;27;45427;-61
2021/12/11 00:45:21;;;;;;;;;9.00;5.00;;;;;5.76;64.16;100339.50;5097206;27;45525;-60
2021/12/11 00:47:50;;;;;;;;;6.00;4.50;;;;;5.75;64.40;100346.53;5097495;27;45921;-62
2021/12/11 00:50:17;;;;;;;;;5.00;5.00;;;;;5.72;64.36;100340.69;5096300;27;45399;-61
2021/12/11 00:52:43;;;;;;;;;7.50;4.75;;;;;5.72;64.36;100359.78;5079238;27;45328;-61
2021/12/11 00:55:26;;;;;;;;;4.25;4.25;;;;;5.70;64.45;100364.25;5097276;27;46239;-61
2021/12/11 00:58:14;;;;;;;;;6.50;5.00;;;;;5.70;64.54;100368.63;5097362;27;45944;-61
2021/12/11 01:00:44;;;;;;;;;8.75;6.75;;;;;5.68;64.36;100379.19;5097439;27;45398;-63
2021/12/11 01:03:11;;;;;;;;;8.50;4.00;;;;;5.66;64.70;100383.66;5097580;27;45564;-62
2021/12/11 01:05:40;;;;;;;;;5.25;5.25;;;;;5.65;64.78;100382.00;5096031;27;46592;-63
2021/12/11 01:08:19;;;;;;;;;7.50;5.25;;;;;5.63;64.83;100389.91;5078558;27;45898;-61
2021/12/11 01:10:46;;;;;;;;;8.00;4.25;;;;;5.63;64.79;100389.09;5062852;27;45289;-61
2021/12/11 01:13:15;;;;;;;;;6.75;6.75;;;;;5.62;64.68;100395.25;5097545;27;45431;-61
2021/12/11 01:15:53;;;;;;;;;6.50;4.75;;;;;5.60;64.72;100402.34;5097051;27;45517;-62
2021/12/11 01:21:02;;;;;;;;;9.25;4.75;;;;;5.57;64.92;100408.59;5097064;27;45445;-61
2021/12/11 01:25:59;;;;;;;;;4.00;4.00;;;;;5.55;64.90;100426.13;5097029;27;45984;-61
2021/12/11 01:28:24;;;;;;;;;5.00;4.00;;;;;5.54;64.92;100434.03;5096887;27;45402;-61
2021/12/11 01:30:50;;;;;;;;;7.25;6.25;;;;;5.53;64.99;100429.75;5078891;27;45469;-63
2021/12/11 01:33:15;;;;;;;;;5.25;4.00;;;;;5.51;65.18;100429.88;5077840;27;65112;-62
2021/12/11 01:35:40;;;;;;;;;8.25;4.50;;;;;5.50;65.28;100436.84;5078067;27;59238;-61
2021/12/11 01:38:21;;;;;;;;;4.25;4.25;;;;;5.49;64.97;100440.41;5096561;27;45439;-61
2021/12/11 01:40:48;;;;;;;;;10.00;5.25;;;;;5.49;64.97;100442.19;5096641;27;46078;-61
2021/12/11 01:43:14;;;;;;;;;7.25;4.75;;;;;5.48;65.01;100454.38;5096613;27;45429;-62
2021/12/11 01:45:44;;;;;;;;;11.75;6.00;;;;;5.47;65.20;100449.28;5096569;27;46571;-62
2021/12/11 01:48:09;;;;;;;;;4.25;4.00;;;;;5.44;65.36;100455.50;5078257;27;45284;-61
2021/12/11 01:50:40;;;;;;;;;7.50;5.50;;;;;5.43;65.38;100460.84;5095772;27;68696;-61
2021/12/11 01:53:12;;;;;;;;;7.25;7.25;;;;;5.42;65.22;100473.03;5096785;27;45264;-62
2021/12/11 01:55:43;;;;;;;;;6.25;5.25;;;;;5.40;65.35;100467.06;5096437;27;46181;-61
2021/12/11 01:58:10;;;;;;;;;7.50;5.75;;;;;5.38;65.28;100466.34;5096485;27;45718;-62
2021/12/11 02:00:54;;;;;;;;;5.75;4.00;;;;;5.37;65.55;100469.06;5096489;27;45382;-62
2021/12/11 02:03:23;;;;;;;;;6.00;6.00;;;;;5.35;65.55;100472.63;5080602;27;45429;-62
2021/12/11 02:05:48;;;;;;;;;5.00;4.75;;;;;5.34;65.44;100477.91;5078369;27;45403;-60
2021/12/11 02:08:17;;;;;;;;;8.50;4.00;;;;;5.33;65.54;100479.69;5095599;27;65337;-61
2021/12/11 02:10:58;;;;;;;;;8.25;5.25;;;;;5.33;65.74;100491.88;5078187;27;45329;-62
2021/12/11 02:13:40;;;;;;;;;9.00;4.50;;;;;5.32;65.67;100487.59;5080184;27;45347;-61
2021/12/11 02:16:06;;;;;;;;;7.75;6.50;;;;;5.30;65.65;100485.13;5096125;27;46991;-62
2021/12/11 02:18:35;;;;;;;;;10.00;5.25;;;;;5.31;65.87;100501.56;5077800;27;46009;-61
2021/12/11 02:21:22;;;;;;;;;4.50;4.50;;;;;5.31;65.58;100509.38;5078504;27;45317;-60
2021/12/11 02:23:53;;;;;;;;;8.75;6.50;;;;;5.31;65.53;100509.38;5078004;27;45324;-62
2021/12/11 02:26:18;;;;;;;;;7.00;4.50;;;;;5.28;65.62;100504.41;5096103;27;46618;-62
2021/12/11 02:28:47;;;;;;;;;8.00;6.25;;;;;5.28;65.66;100513.03;5096115;27;45397;-63
2021/12/11 02:31:33;;;;;;;;;7.00;4.00;;;;;5.26;65.66;100521.91;5096080;27;45242;-61
2021/12/11 02:34:09;;;;;;;;;7.25;5.25;;;;;5.24;65.70;100519.38;5082114;27;45643;-61
2021/12/11 02:36:57;;;;;;;;;5.25;4.00;;;;;5.22;66.02;100520.44;5099440;27;45806;-62
2021/12/11 02:39:30;;;;;;;;;5.00;4.25;;;;;5.21;65.79;100522.19;5081513;27;45891;-62
2021/12/11 02:42:16;;;;;;;;;5.25;4.25;;;;;5.20;65.79;100523.97;5099383;27;45232;-62
2021/12/11 02:45:13;;;;;;;;;10.75;6.50;;;;;5.19;65.76;100529.28;5065097;27;45462;-62
2021/12/11 02:47:59;;;;;;;;;8.00;6.50;;;;;5.18;65.75;100536.28;5060528;27;46186;-61
2021/12/11 02:50:36;;;;;;;;;8.75;8.00;;;;;5.17;65.88;100545.03;5080439;27;45861;-62
2021/12/11 02:53:13;;;;;;;;;11.50;7.50;;;;;5.14;65.77;100533.94;5099147;27;45371;-62
2021/12/11 02:55:43;;;;;;;;;7.75;5.25;;;;;5.10;65.91;100543.75;5099316;27;45485;-62
2021/12/11 02:58:16;;;;;;;;;8.00;4.75;;;;;5.08;65.79;100547.38;5099279;27;50944;-62
2021/12/11 03:00:57;;;;;;;;;6.50;6.50;;;;;5.07;65.95;100558.72;5099134;27;45401;-62
2021/12/11 03:03:38;;;;;;;;;5.50;5.50;;;;;5.04;66.22;100560.59;5081745;27;45422;-62
2021/12/11 03:06:18;;;;;;;;;7.00;4.50;;;;;5.01;66.28;100552.16;5081432;27;45567;-62
2021/12/11 03:08:45;;;;;;;;;11.00;6.50;;;;;4.98;66.23;100562.75;5082502;27;46467;-61
2021/12/11 03:11:12;;;;;;;;;8.75;7.25;;;;;4.96;66.32;100567.25;5099034;27;45244;-62
2021/12/11 03:13:39;;;;;;;;;6.00;3.00;;;;;4.96;66.34;100569.84;5099130;27;45535;-62
2021/12/11 03:16:06;;;;;;;;;6.00;6.00;;;;;4.93;66.61;100576.09;5099016;27;45494;-62
2021/12/11 03:18:31;;;;;;;;;6.75;4.00;;;;;4.93;66.67;100585.66;5080625;27;46530;-61
2021/12/11 03:20:56;;;;;;;;;8.50;4.75;;;;;4.90;66.74;100587.53;5097672;27;70541;-61
2021/12/11 03:23:22;;;;;;;;;8.25;6.00;;;;;4.90;66.73;100595.34;5098817;27;45366;-61
2021/12/11 03:25:47;;;;;;;;;8.00;6.00;;;;;4.90;66.94;100597.94;5098059;27;60321;-61
2021/12/11 03:28:13;;;;;;;;;6.50;4.00;;;;;4.90;66.54;100597.94;5080496;27;46704;-61
2021/12/11 03:30:41;;;;;;;;;10.25;3.00;;;;;4.88;66.58;100598.97;5098811;27;45372;-61
2021/12/11 03:33:12;;;;;;;;;9.25;4.00;;;;;4.85;66.74;100602.59;5098811;27;45323;-62
2021/12/11 03:35:38;;;;;;;;;8.50;4.50;;;;;4.85;67.00;100617.41;5081131;27;45247;-61
2021/12/11 03:38:03;;;;;;;;;5.75;4.75;;;;;4.82;67.07;100618.41;5080391;27;45557;-61
2021/12/11 03:40:29;;;;;;;;;6.00;5.50;;;;;4.81;66.96;100615.91;5098637;27;46593;-62
2021/12/11 03:42:55;;;;;;;;;3.75;3.25;;;;;4.81;67.25;100624.56;5080083;27;45407;-61
2021/12/11 03:45:26;;;;;;;;;7.75;6.00;;;;;4.82;67.19;100628.00;5079263;27;45316;-62
2021/12/11 03:47:55;;;;;;;;;5.75;4.00;;;;;4.80;67.19;100635.91;5098536;27;45659;-61
2021/12/11 03:50:21;;;;;;;;;6.75;4.00;;;;;4.81;66.98;100637.56;5098366;27;45304;-62
2021/12/11 03:52:47;;;;;;;;;8.00;4.75;;;;;4.81;66.99;100642.78;5080267;27;45434;-62
2021/12/11 03:55:14;;;;;;;;;7.50;4.00;;;;;4.80;67.07;100641.09;5098387;27;45655;-62
2021/12/11 03:57:42;;;;;;;;;7.25;4.00;;;;;4.79;67.05;100647.25;5097002;27;45366;-61
2021/12/11 04:00:09;;;;;;;;;8.00;5.75;;;;;4.78;67.28;100655.97;5098346;27;45365;-61
2021/12/11 04:02:35;;;;;;;;;8.50;4.00;;;;;4.75;67.31;100657.03;5079821;27;45293;-62
2021/12/11 04:05:01;;;;;;;;;7.25;4.75;;;;;4.74;67.40;100664.94;5098164;27;45687;-61
2021/12/11 04:07:31;;;;;;;;;6.25;4.00;;;;;4.73;67.23;100663.28;5097999;27;46178;-62
2021/12/11 04:09:56;;;;;;;;;2.50;2.25;;;;;4.73;67.49;100650.25;5079928;27;45812;-61
2021/12/11 04:12:22;;;;;;;;;8.50;4.00;;;;;4.71;67.57;100662.53;5098165;27;45327;-61
2021/12/11 04:14:48;;;;;;;;;5.75;3.25;;;;;4.71;67.60;100665.94;5079808;27;45269;-61
2021/12/11 04:17:18;;;;;;;;;3.25;3.25;;;;;4.70;67.33;100669.47;5097902;27;46205;-62
2021/12/11 04:19:43;;;;;;;;;8.00;3.00;;;;;4.70;67.67;100671.25;5097896;27;45450;-61
2021/12/11 04:22:09;;;;;;;;;3.25;3.00;;;;;4.69;67.42;100672.19;5079197;27;45363;-62
2021/12/11 04:24:36;;;;;;;;;8.75;4.00;;;;;4.70;67.44;100673.88;5097227;27;61936;-61
2021/12/11 04:27:02;;;;;;;;;7.75;3.25;;;;;4.68;67.37;100670.53;5079500;27;45407;-61
2021/12/11 04:29:29;;;;;;;;;6.00;4.00;;;;;4.67;67.50;100676.66;5079579;27;45311;-61
2021/12/11 04:31:54;;;;;;;;;8.75;4.75;;;;;4.65;67.60;100683.72;5079730;27;45371;-62
2021/12/11 04:34:20;;;;;;;;;12.50;6.25;;;;;4.64;67.82;100687.25;5097806;27;45165;-61
2021/12/11 04:36:49;;;;;;;;;4.50;3.00;;;;;4.61;67.89;100690.88;5079201;27;45564;-62
2021/12/11 04:39:17;;;;;;;;;5.75;4.00;;;;;4.62;67.66;100700.34;5079529;27;45890;-61
2021/12/11 04:41:53;;;;;;;;;8.00;3.00;;;;;4.62;67.75;100694.31;5097657;27;45303;-61
2021/12/11 04:44:22;;;;;;;;;5.75;3.00;;;;;4.60;67.69;100697.00;5044382;28;45382;-62
2021/12/11 04:46:48;;;;;;;;;7.00;3.00;;;;;4.60;68.26;100697.00;5076995;28;46568;-62
2021/12/11 04:49:23;;;;;;;;;7.75;6.00;;;;;4.60;67.96;100703.06;5059012;28;45438;-61
2021/12/11 04:52:01;;;;;;;;;6.00;4.00;;;;;4.59;67.94;100708.34;5077075;28;45388;-62
2021/12/11 04:59:40;;;;;;;;;7.50;4.25;;;;;4.56;67.60;100726.75;5077093;28;45847;-61
2021/12/11 05:05:03;;;;;;;;;5.00;3.25;;;;;4.53;67.69;100711.31;5076927;28;45426;-60
2021/12/11 05:07:39;;;;;;;;;8.00;4.00;;;;;4.54;68.19;100712.97;5058545;28;47677;-61
2021/12/11 05:10:24;;;;;;;;;6.50;4.00;;;;;4.53;67.99;100712.16;5058602;28;45854;-62
2021/12/11 05:12:52;;;;;;;;;10.00;4.00;;;;;4.53;68.18;100706.09;5076918;28;45338;-61
2021/12/11 05:15:21;;;;;;;;;7.00;4.50;;;;;4.52;68.01;100709.63;5076674;28;45476;-62
2021/12/11 05:17:47;;;;;;;;;8.00;4.00;;;;;4.50;68.18;100707.13;5076693;28;46532;-62
2021/12/11 05:20:13;;;;;;;;;6.00;5.00;;;;;4.49;68.06;100702.88;5075701;28;64533;-61
2021/12/11 05:22:39;;;;;;;;;12.25;6.00;;;;;4.49;68.04;100713.28;5076643;28;45463;-61
2021/12/11 05:25:05;;;;;;;;;4.75;4.75;;;;;4.48;68.07;100714.19;5076644;28;45319;-62
2021/12/11 05:27:30;;;;;;;;;6.00;3.00;;;;;4.49;68.30;100712.44;5076267;28;52164;-60
2021/12/11 05:29:56;;;;;;;;;3.50;2.00;;;;;4.48;68.40;100729.81;5075643;28;65031;-61
2021/12/11 05:32:22;;;;;;;;;5.75;3.00;;;;;4.47;68.19;100733.34;5076523;28;45817;-61
2021/12/11 05:34:48;;;;;;;;;5.00;3.00;;;;;4.48;68.08;100735.00;5076410;28;45618;-61
2021/12/11 05:37:13;;;;;;;;;7.50;3.75;;;;;4.47;68.40;100741.16;5075869;28;57712;-61
2021/12/11 05:39:39;;;;;;;;;6.00;3.75;;;;;4.45;68.24;100740.41;5075532;28;45344;-62
2021/12/11 05:42:04;;;;;;;;;6.00;3.25;;;;;4.44;68.19;100750.00;5075824;27;45408;-60
2021/12/11 05:44:30;;;;;;;;;3.00;3.00;;;;;4.44;68.21;100749.13;5077335;27;45557;-62
2021/12/11 05:46:55;;;;;;;;;6.00;3.00;;;;;4.43;68.29;100757.88;5094409;27;73073;-62
2021/12/11 05:49:21;;;;;;;;;6.25;3.75;;;;;4.43;68.28;100765.66;5076012;27;69703;-61
2021/12/11 05:51:47;;;;;;;;;7.50;3.50;;;;;4.43;68.36;100773.47;5095657;27;45500;-61
2021/12/11 05:54:16;;;;;;;;;4.50;3.00;;;;;4.41;68.15;100776.19;5095957;27;45445;-62
2021/12/11 05:56:42;;;;;;;;;4.75;3.00;;;;;4.42;68.21;100783.06;5078441;27;46575;-62
2021/12/11 05:59:09;;;;;;;;;6.25;4.00;;;;;4.42;68.58;100797.81;5096532;27;45652;-61
2021/12/11 06:01:38;;;;;;;;;8.75;4.00;;;;;4.42;68.67;100796.06;5096608;27;45389;-61
2021/12/11 06:04:08;;;;;;;;;7.50;4.50;;;;;4.42;68.59;100803.03;5096527;27;45334;-61
2021/12/11 06:06:33;;;;;;;;;7.00;4.00;;;;;4.43;68.59;100805.56;5096539;27;45355;-61
2021/12/11 06:08:59;;;;;;;;;8.50;6.50;;;;;4.44;68.55;100812.44;5099640;27;45367;-62
2021/12/11 06:11:24;;;;;;;;;11.25;6.75;;;;;4.45;68.69;100823.66;5100107;27;45880;-61
2021/12/11 06:13:50;;;;;;;;;7.00;3.50;;;;;4.45;68.71;100826.25;5100008;27;45557;-61
2021/12/11 06:16:15;;;;;;;;;7.25;3.00;;;;;4.44;68.59;100827.19;5080836;27;69204;-62
2021/12/11 06:18:42;;;;;;;;;8.00;5.75;;;;;4.45;68.70;100821.06;5099628;27;45320;-62
2021/12/11 06:21:07;;;;;;;;;3.50;3.25;;;;;4.46;68.22;100830.53;5099795;27;45397;-62
2021/12/11 06:23:33;;;;;;;;;8.75;4.00;;;;;4.44;68.57;100832.41;5080884;27;64936;-61
2021/12/11 06:25:58;;;;;;;;;7.50;4.75;;;;;4.44;68.42;100840.19;5098508;27;74770;-61
2021/12/11 06:28:24;;;;;;;;;8.75;7.00;;;;;4.43;68.45;100847.19;5081331;27;45337;-61
2021/12/11 06:30:50;;;;;;;;;13.25;8.00;;;;;4.42;68.56;100853.31;5099820;27;45438;-61
2021/12/11 06:33:15;;;;;;;;;12.50;9.00;;;;;4.42;68.44;100849.84;5099413;27;46017;-62
2021/12/11 06:35:53;;;;;;;;;12.75;10.50;;;;;4.41;68.43;100858.59;5098948;27;49766;-61
2021/12/11 06:38:20;;;;;;;;;9.50;7.00;;;;;4.40;68.54;100856.91;5099308;27;49780;-61
2021/12/11 06:40:45;;;;;;;;;12.75;8.25;;;;;4.39;68.24;100860.44;5081158;27;45303;-61
2021/12/11 06:43:11;;;;;;;;;7.00;6.50;;;;;4.38;68.33;100859.63;5098239;27;66726;-61
2021/12/11 06:45:37;;;;;;;;;8.00;6.00;;;;;4.37;68.41;100867.50;5099150;27;45457;-61
2021/12/11 06:48:03;;;;;;;;;8.25;7.25;;;;;4.37;68.53;100875.28;5099055;27;45296;-62
2021/12/11 06:50:28;;;;;;;;;7.75;7.25;;;;;4.35;68.42;100875.41;5099121;27;45799;-61
2021/12/11 06:52:54;;;;;;;;;10.25;7.25;;;;;4.35;68.38;100884.94;5098541;27;59669;-61
2021/12/11 06:55:20;;;;;;;;;10.25;7.00;;;;;4.34;68.64;100884.13;5098221;27;70872;-62
2021/12/11 06:57:45;;;;;;;;;11.00;7.25;;;;;4.31;68.66;100884.31;5099249;27;45404;-62
2021/12/11 07:00:11;;;;;;;;;7.75;7.75;;;;;4.29;68.36;100893.94;5099341;27;45317;-61
2021/12/11 07:02:37;;;;;;;;;9.00;6.75;;;;;4.27;68.20;100894.03;5098999;27;45224;-61
2021/12/11 07:05:03;;;;;;;;;6.25;5.25;;;;;4.25;68.15;100895.06;5080649;27;45420;-62
2021/12/11 07:07:33;;;;;;;;;12.50;7.00;;;;;4.22;68.06;100900.41;5099099;27;45246;-61
2021/12/11 07:09:58;;;;;;;;;8.50;6.50;;;;;4.20;68.17;100913.53;5099069;27;45327;-62
2021/12/11 07:12:24;;;;;;;;;12.00;7.00;;;;;4.19;67.93;100911.00;5098149;27;63710;-62
2021/12/11 07:14:49;;;;;;;;;12.00;7.50;;;;;4.15;68.13;100918.97;5098905;27;45336;-61
2021/12/11 07:17:15;;;;;;;;;9.75;9.00;;;;;4.11;68.25;100929.63;5098792;27;45335;-61
2021/12/11 07:19:40;;;;;;;;;10.75;10.00;;;;;4.08;67.73;100929.81;5079403;27;66446;-62
2021/12/11 07:22:05;;;;;;;;;13.75;11.75;;;;;4.05;67.59;100937.75;5097191;27;53205;-62
2021/12/11 07:24:35;;;;;;;;;13.25;12.00;;;;;3.99;67.48;100944.97;5097930;27;67399;-62
2021/12/11 07:27:01;;;;;;;;;11.50;10.50;;;;;3.94;67.61;100957.38;5097435;27;45414;-60
2021/12/11 07:29:26;;;;;;;;;18.00;12.25;;;;;3.89;67.63;100956.78;5098800;27;45370;-61
2021/12/11 07:31:53;;;;;;;;;12.50;10.50;;;;;3.87;67.98;100963.84;5098762;27;45641;-61
2021/12/11 07:34:18;;;;;;;;;15.75;12.00;;;;;3.86;68.36;100972.56;5098333;27;45685;-61
2021/12/11 07:36:44;;;;;;;;;10.00;10.00;;;;;3.81;68.19;100970.22;5098287;27;45548;-62
2021/12/11 07:39:12;;;;;;;;;18.50;15.00;;;;;3.80;68.64;100975.47;5098617;27;45264;-61
2021/12/11 07:41:39;;;;;;;;;18.00;13.00;;;;;3.77;68.64;100979.09;5097167;27;45374;-62
2021/12/11 07:44:05;;;;;;;;;13.00;9.00;;;;;3.79;68.28;100981.59;5076503;28;46289;-61
2021/12/11 07:46:30;;;;;;;;;15.75;11.25;;;;;3.76;68.55;100977.41;5076783;28;45260;-61
2021/12/11 07:48:57;;;;;;;;;20.75;14.75;;;;;3.76;68.28;100982.59;5076775;28;45841;-61
2021/12/11 07:51:23;;;;;;;;;15.00;13.00;;;;;3.75;68.49;100996.53;5078080;27;45268;-61
2021/12/11 07:53:49;;;;;;;;;27.75;27.00;;;;;3.72;68.53;100991.47;5076452;28;46435;-61
2021/12/11 07:56:17;;;;;;;;;20.00;13.50;;;;;3.71;68.47;100993.22;5076607;28;45403;-61
2021/12/11 07:58:42;;;;;;;;;16.50;14.00;;;;;3.70;68.62;101001.97;5076310;28;45371;-61
2021/12/11 08:01:08;;;;;;;;;21.25;15.50;;;;;3.70;68.27;100998.53;5077096;28;59959;-61
2021/12/11 08:03:33;;;;;;;;;24.00;19.25;;;;;3.68;68.26;101000.34;5076884;28;63346;-61
2021/12/11 08:05:59;;;;;;;;;20.25;17.00;;;;;3.68;68.62;101005.56;5077471;28;45828;-61
2021/12/11 08:08:24;;;;;;;;;25.00;19.50;;;;;3.67;68.73;101015.13;5075736;28;60190;-62
2021/12/11 08:10:52;;;;;;;;;31.50;23.00;;;;;3.67;68.69;101012.53;5077739;27;45408;-61
2021/12/11 08:13:17;;;;;;;;;32.00;23.50;;;;;3.67;68.72;101009.94;5076008;28;48668;-62
2021/12/11 08:15:43;;;;;;;;;28.00;22.50;;;;;3.67;68.82;101014.28;5077291;28;45255;-61
2021/12/11 08:18:09;;;;;;;;;26.75;22.25;;;;;3.69;69.13;101018.50;5076931;28;58429;-62
2021/12/11 08:20:35;;;;;;;;;20.75;18.00;;;;;3.71;69.08;101024.41;5077532;27;45290;-61
2021/12/11 08:23:01;;;;;;;;;23.50;22.25;;;;;3.75;68.76;101042.44;5077127;27;45320;-61
2021/12/11 08:25:27;;;;;;;;;23.50;16.75;;;;;3.76;69.33;101051.94;5077345;27;45442;-62
2021/12/11 08:27:53;;;;;;;;;13.50;10.50;;;;;3.78;69.38;101052.69;5076252;28;45388;-61
2021/12/11 08:30:19;;;;;;;;;11.25;9.25;;;;;3.80;69.16;101053.44;5076649;27;45497;-61
2021/12/11 08:32:44;;;;;;;;;9.25;7.00;;;;;3.80;69.83;101056.06;5058538;28;62084;-61
2021/12/11 08:35:10;;;;;;;;;13.50;12.00;;;;;3.83;69.69;101061.09;5076202;28;71022;-61
2021/12/11 08:37:36;;;;;;;;;20.00;15.00;;;;;3.84;69.86;101060.19;5057929;27;45483;-62
2021/12/11 08:40:04;;;;;;;;;28.00;18.50;;;;;3.89;69.96;101065.97;5057705;28;45519;-61
2021/12/11 08:42:29;;;;;;;;;22.75;19.50;;;;;3.93;70.12;101062.31;5055002;28;46572;-61
2021/12/11 08:45:04;;;;;;;;;31.75;28.25;;;;;3.98;70.00;101065.50;5055980;28;45583;-61
2021/12/11 08:47:30;;;;;;;;;27.50;22.75;;;;;4.03;70.15;101067.03;5038337;28;45548;-61
2021/12/11 08:49:55;;;;;;;;;38.00;28.00;;;;;4.06;69.95;101072.88;5055667;28;45609;-61
2021/12/11 08:52:20;;;;;;;;;34.50;28.75;;;;;4.11;69.87;101067.47;5063785;28;46644;-61
2021/12/11 08:54:46;;;;;;;;;13.33;7.33;;;;;4.15;70.09;101066.38;5055563;28;45407;-62
2021/12/11 08:57:12;;;;;;;;;18.75;18.75;;;;;4.16;70.17;101057.66;5055361;28;45475;-61
2021/12/11 08:59:39;;;;;;;;;30.50;25.00;;;;;4.20;70.03;101058.31;5059160;28;45302;-61
2021/12/11 09:02:23;;;;;;;;;62.50;48.25;;;;;4.25;70.33;101071.94;5056763;28;49240;-61
2021/12/11 09:04:59;;;;;;;;;72.00;55.75;;;;;4.29;69.70;101089.88;5046141;28;45447;-62
2021/12/11 09:07:37;;;;;;;;;70.75;53.50;;;;;4.33;69.64;101093.19;5032149;28;45414;-61
2021/12/11 09:10:30;;;;;;;;;69.25;52.25;;;;;4.38;69.52;101096.38;5056400;28;45359;-62
2021/12/11 09:13:02;;;;;;;;;76.00;56.00;;;;;4.42;69.41;101102.25;5037074;28;46306;-61
2021/12/11 09:15:32;;;;;;;;;76.50;58.00;;;;;4.45;69.45;101105.53;5063165;28;46534;-62
2021/12/11 09:18:01;;;;;;;;;71.75;55.00;;;;;4.52;69.40;101111.25;5055067;28;45340;-61
2021/12/11 09:20:40;;;;;;;;;67.75;50.50;;;;;4.57;69.65;101113.59;5020938;28;45468;-61
2021/12/11 09:23:10;;;;;;;;;69.50;51.75;;;;;4.65;69.50;101110.59;5048358;28;46069;-61
2021/12/11 09:25:43;;;;;;;;;59.25;46.00;;;;;4.74;69.59;101112.69;5055120;28;45490;-62
2021/12/11 09:28:15;;;;;;;;;62.50;45.00;;;;;4.80;69.71;101117.53;5057565;28;45422;-62
2021/12/11 09:30:43;;;;;;;;;56.25;44.00;;;;;4.89;69.36;101114.44;5054873;28;45237;-61
2021/12/11 09:33:12;;;;;;;;;58.00;46.00;;;;;4.97;69.42;101124.44;5055005;28;46364;-62
2021/12/11 09:35:40;;;;;;;;;53.75;42.25;;;;;5.09;69.35;101122.91;5054948;28;45384;-62
2021/12/11 09:38:24;;;;;;;;;20.00;7.50;;;;;5.24;69.30;101139.44;5037912;28;45488;-61
2021/12/11 09:40:53;;;;;;;;;61.25;45.00;;;;;5.42;69.22;101142.75;5056100;28;45377;-62
2021/12/11 09:43:25;;;;;;;;;58.75;44.25;;;;;5.65;68.99;101144.03;5058203;28;46252;-62
2021/12/11 09:45:50;;;;;;;;;61.25;45.25;;;;;5.90;68.91;101145.22;5060723;28;45356;-62
2021/12/11 09:48:17;;;;;;;;;53.75;45.00;;;;;6.17;68.49;101143.72;5057050;28;65995;-62
2021/12/11 09:50:51;;;;;;;;;50.50;41.00;;;;;6.45;68.30;101153.31;5039635;28;45380;-62
2021/12/11 09:53:18;;;;;;;;;41.75;29.75;;;;;6.75;67.47;101152.31;5063518;28;47485;-62
2021/12/11 09:55:43;;;;;;;;;34.25;30.00;;;;;7.00;66.97;101150.78;5057837;28;46035;-63
2021/12/11 09:58:11;;;;;;;;;33.25;25.25;;;;;7.27;66.78;101161.25;5054826;28;45478;-62
2021/12/11 10:00:43;;;;;;;;;36.00;28.50;;;;;7.57;66.17;101159.34;5065587;28;45527;-63
2021/12/11 10:03:09;;;;;;;;;23.00;15.00;;;;;7.89;65.69;101163.38;5032303;28;48167;-63
2021/12/11 10:05:50;;;;;;;;;20.25;15.00;;;;;8.22;65.00;101172.50;5074962;28;45343;-62
2021/12/11 10:10:52;;;;;;;;;18.00;16.50;;;;;8.67;63.18;101178.13;5060287;28;45355;-62
2021/12/11 10:13:18;;;;;;;;;20.50;13.00;;;;;8.86;62.83;101171.63;5055518;28;45487;-62
2021/12/11 10:15:43;;;;;;;;;18.50;14.50;;;;;9.02;62.36;101180.03;5060777;28;45378;-63
2021/12/11 10:18:12;;;;;;;;;15.25;13.50;;;;;9.22;61.57;101180.38;5043986;28;58373;-63
2021/12/11 10:20:44;;;;;;;;;14.25;13.25;;;;;9.43;61.70;101171.91;5048750;28;45665;-62
2021/12/11 10:23:10;;;;;;;;;20.00;15.00;;;;;9.63;60.80;101168.63;5050293;28;45523;-62
2021/12/11 10:25:37;;;;;;;;;19.50;12.50;;;;;9.80;60.27;101166.53;5058283;28;45969;-63
2021/12/11 10:28:05;;;;;;;;;19.00;15.25;;;;;9.94;59.88;101181.25;5057775;28;45443;-63
2021/12/11 10:30:32;;;;;;;;;20.75;15.50;;;;;10.04;59.63;101184.84;5061429;28;45494;-62
2021/12/11 10:32:57;;;;;;;;;20.00;17.50;;;;;10.10;58.93;101178.28;5057677;28;46142;-62
2021/12/11 10:35:32;;;;;;;;;26.25;18.50;;;;;10.12;58.49;101176.38;5058671;28;45401;-62
2021/12/11 10:38:03;;;;;;;;;22.75;19.00;;;;;10.13;58.34;101178.06;5046226;28;45423;-62
2021/12/11 10:40:31;;;;;;;;;19.25;18.25;;;;;10.16;58.17;101175.19;5056596;28;45516;-61
2021/12/11 10:43:00;;;;;;;;;19.75;16.50;;;;;10.20;57.97;101171.38;5056867;28;46638;-62
2021/12/11 10:45:27;;;;;;;;;22.75;19.00;;;;;10.21;57.58;101172.22;5058471;28;45834;-61
2021/12/11 10:47:56;;;;;;;;;27.50;20.50;;;;;10.21;57.69;101186.19;5039483;28;45491;-63
2021/12/11 10:50:23;;;;;;;;;24.00;20.75;;;;;10.21;57.24;101188.00;5042965;28;45501;-62
2021/12/11 10:52:49;;;;;;;;;24.00;22.00;;;;;10.16;57.47;101188.31;5056395;28;45480;-63
2021/12/11 10:55:17;;;;;;;;;25.75;22.00;;;;;10.16;57.29;101190.13;5059278;28;45471;-63
2021/12/11 10:57:42;;;;;;;;;25.00;21.75;;;;;10.14;57.40;101189.41;5056718;28;45403;-62
2021/12/11 11:00:16;;;;;;;;;25.75;21.25;;;;;10.14;57.31;101189.41;5044379;28;62088;-62
2021/12/11 11:02:41;;;;;;;;;26.50;21.00;;;;;10.12;57.41;101196.56;5057023;28;46302;-63
2021/12/11 11:05:15;;;;;;;;;19.50;18.25;;;;;10.11;57.09;101195.72;5039352;28;45317;-62
2021/12/11 11:07:42;;;;;;;;;24.50;19.50;;;;;10.08;57.12;101199.41;5057028;28;45376;-62
2021/12/11 11:10:10;;;;;;;;;18.50;18.00;;;;;10.07;57.29;101199.53;5040246;28;45626;-62
2021/12/11 11:12:36;;;;;;;;;21.25;19.00;;;;;10.09;57.18;101192.38;5065150;28;46210;-61
2021/12/11 11:15:02;;;;;;;;;21.50;19.25;;;;;10.12;57.50;101186.88;5047094;28;45265;-62
2021/12/11 11:17:29;;;;;;;;;21.75;19.25;;;;;10.18;57.35;101190.84;5068711;28;46116;-62
2021/12/11 11:19:55;;;;;;;;;19.00;16.25;;;;;10.25;56.95;101192.06;5058659;28;45666;-62
2021/12/11 11:22:26;;;;;;;;;19.50;18.25;;;;;10.30;56.57;101189.06;5063112;28;45402;-62
2021/12/11 11:25:08;;;;;;;;;22.00;19.00;;;;;10.31;57.00;101185.47;5039798;28;45824;-62
2021/12/11 11:27:34;;;;;;;;;19.25;16.00;;;;;10.29;56.72;101176.88;5060820;28;46276;-62
2021/12/11 11:29:59;;;;;;;;;17.00;13.00;;;;;10.27;56.67;101179.63;5065448;28;45431;-62
2021/12/11 11:32:31;;;;;;;;;14.75;14.75;;;;;10.25;56.54;101176.28;5056307;28;70618;-62
2021/12/11 11:35:11;;;;;;;;;20.50;17.00;;;;;10.22;56.59;101185.22;5052792;28;45415;-62
2021/12/11 11:37:36;;;;;;;;;22.25;18.00;;;;;10.21;56.77;101185.38;5057561;28;45413;-62
2021/12/11 11:40:08;;;;;;;;;18.75;16.75;;;;;10.20;56.59;101188.94;5040210;28;45607;-62
2021/12/11 11:42:34;;;;;;;;;19.50;16.75;;;;;10.16;56.08;101190.13;5040851;28;49158;-61
2021/12/11 11:45:00;;;;;;;;;18.00;17.00;;;;;10.12;56.45;101184.25;5056710;28;45479;-62
2021/12/11 11:47:25;;;;;;;;;25.50;19.00;;;;;10.09;56.76;101192.38;5056481;28;45387;-62
2021/12/11 11:49:58;;;;;;;;;16.50;14.00;;;;;10.08;56.48;101196.78;5057896;28;65780;-62